createdAt,value
2022-08-22T00:01:58.276Z,98795.41
2022-08-22T00:02:59.383Z,98794.09
2022-08-22T00:04:48.630Z,98789.72
2022-08-22T00:07:28.095Z,98796.31
2022-08-22T00:10:20.984Z,98788.38
2022-08-22T00:13:08.354Z,98790.66
2022-08-22T00:15:44.266Z,98782.50
2022-08-22T00:18:37.882Z,98789.38
2022-08-22T00:21:14.677Z,98786.63
2022-08-22T00:24:05.530Z,98792.53
2022-08-22T00:26:55.606Z,98791.41
2022-08-22T00:29:33.263Z,98786.78
2022-08-22T00:32:32.586Z,98787.69
2022-08-22T00:35:15.050Z,98783.41
2022-08-22T00:37:52.819Z,98778.78
2022-08-22T00:40:50.320Z,98781.47
2022-08-22T00:43:54.811Z,98786.78
2022-08-22T00:46:41.655Z,98769.88
2022-08-22T00:49:51.643Z,98782.34
2022-08-22T00:52:26.050Z,98776.91
2022-08-22T00:55:08.571Z,98784.84
2022-08-22T00:58:13.493Z,98781.88
2022-08-22T01:00:52.273Z,98782.25
2022-08-22T01:03:49.279Z,98783.47
2022-08-22T01:07:03.692Z,98780.78
2022-08-22T01:10:14.923Z,98774.44
2022-08-22T01:13:12.854Z,98771.78
2022-08-22T01:15:42.439Z,98762.66
2022-08-22T01:18:40.090Z,98767.31
2022-08-22T01:21:20.661Z,98758.22
2022-08-22T01:24:21.033Z,98763.13
2022-08-22T01:27:36.663Z,98767.38
2022-08-22T01:30:26.983Z,98763.34
2022-08-22T01:33:41.246Z,98757.88
2022-08-22T01:36:44.202Z,98758.78
2022-08-22T01:39:58.710Z,98755.31
2022-08-22T01:42:41.282Z,98761.00
2022-08-22T01:45:33.574Z,98764.34
2022-08-22T01:48:20.867Z,98766.81
2022-08-22T01:50:54.499Z,98747.91
2022-08-22T01:53:42.171Z,98759.34
2022-08-22T01:56:25.456Z,98756.69
2022-08-22T01:59:15.011Z,98753.28
2022-08-22T02:02:41.123Z,98747.06
2022-08-22T02:05:17.210Z,98755.31
2022-08-22T02:07:53.366Z,98762.72
2022-08-22T02:10:47.631Z,98757.97
2022-08-22T02:13:14.211Z,98769.75
2022-08-22T02:15:55.908Z,98755.31
2022-08-22T02:18:50.708Z,98762.00
2022-08-22T02:21:41.114Z,98760.53
2022-08-22T02:24:42.268Z,98760.53
2022-08-22T02:27:36.978Z,98762.41
2022-08-22T02:30:15.843Z,98760.81
2022-08-22T02:32:42.415Z,98750.41
2022-08-22T02:35:12.847Z,98751.34
2022-08-22T02:38:24.887Z,98754.69
2022-08-22T02:41:08.800Z,98754.19
2022-08-22T02:44:19.127Z,98758.75
2022-08-22T02:47:10.887Z,98747.38
2022-08-22T02:50:18.871Z,98752.88
2022-08-22T02:52:58.372Z,98754.00
2022-08-22T02:55:56.598Z,98747.94
2022-08-22T02:59:02.659Z,98744.63
2022-08-22T03:01:29.727Z,98735.31
2022-08-22T03:04:14.952Z,98739.88
2022-08-22T03:07:23.499Z,98735.94
2022-08-22T03:10:04.598Z,98735.94
2022-08-22T03:12:57.569Z,98732.88
2022-08-22T03:15:57.124Z,98738.94
2022-08-22T03:19:13.109Z,98738.38
2022-08-22T03:22:03.747Z,98736.88
2022-08-22T03:25:03.860Z,98735.97
2022-08-22T03:27:42.196Z,98735.84
2022-08-22T03:30:30.699Z,98732.75
2022-08-22T03:33:20.951Z,98740.66
2022-08-22T03:35:47.903Z,98743.34
2022-08-22T03:38:24.869Z,98740.19
2022-08-22T03:41:39.311Z,98741.91
2022-08-22T03:44:34.368Z,98734.06
2022-08-22T03:47:25.379Z,98747.19
2022-08-22T03:50:27.296Z,98744.59
2022-08-22T03:53:34.567Z,98749.63
2022-08-22T03:56:42.092Z,98751.91
2022-08-22T04:00:01.753Z,98750.28
2022-08-22T04:03:12.137Z,98752.03
2022-08-22T04:06:06.810Z,98758.91
2022-08-22T04:09:16.005Z,98753.53
2022-08-22T04:12:10.167Z,98768.22
2022-08-22T04:15:00.953Z,98760.28
2022-08-22T04:17:43.064Z,98758.53
2022-08-22T04:20:16.664Z,98761.28
2022-08-22T04:22:59.366Z,98764.41
2022-08-22T04:25:36.444Z,98762.13
2022-08-22T04:28:33.611Z,98752.59
2022-08-22T04:31:08.859Z,98755.94
2022-08-22T04:33:48.287Z,98758.31
2022-08-22T04:36:30.336Z,98758.03
2022-08-22T04:39:05.760Z,98757.50
2022-08-22T04:42:16.034Z,98761.25
2022-08-22T04:45:22.895Z,98759.00
2022-08-22T04:48:04.792Z,98757.44
2022-08-22T04:50:47.808Z,98764.25
2022-08-22T04:53:26.485Z,98763.28
2022-08-22T04:56:27.452Z,98757.81
2022-08-22T04:58:59.497Z,98764.75
2022-08-22T05:01:55.466Z,98761.84
2022-08-22T05:04:31.312Z,98765.34
2022-08-22T05:07:14.597Z,98762.72
2022-08-22T05:10:09.287Z,98775.22
2022-08-22T05:12:50.341Z,98782.47
2022-08-22T05:15:26.296Z,98778.47
2022-08-22T05:17:57.184Z,98776.09
2022-08-22T05:20:27.974Z,98769.63
2022-08-22T05:23:07.840Z,98778.09
2022-08-22T05:25:47.860Z,98774.44
2022-08-22T05:28:36.135Z,98772.88
2022-08-22T05:31:17.655Z,98768.91
2022-08-22T05:34:08.156Z,98767.06
2022-08-22T05:36:44.146Z,98773.50
2022-08-22T05:39:19.676Z,98762.03
2022-08-22T05:41:47.936Z,98769.25
2022-08-22T05:44:37.582Z,98770.00
2022-08-22T05:47:23.888Z,98770.25
2022-08-22T05:50:34.651Z,98781.53
2022-08-22T05:53:28.596Z,98777.41
2022-08-22T05:56:15.684Z,98780.25
2022-08-22T05:58:52.041Z,98779.97
2022-08-22T06:01:49.618Z,98769.97
2022-08-22T06:04:50.043Z,98779.59
2022-08-22T06:07:29.029Z,98787.72
2022-08-22T06:10:25.699Z,98786.69
2022-08-22T06:13:11.868Z,98774.31
2022-08-22T06:16:05.731Z,98785.34
2022-08-22T06:18:35.138Z,98784.88
2022-08-22T06:21:12.250Z,98792.41
2022-08-22T06:23:49.743Z,98799.75
2022-08-22T06:26:20.855Z,98790.19
2022-08-22T06:28:54.551Z,98791.03
2022-08-22T06:31:45.510Z,98796.75
2022-08-22T06:34:34.921Z,98798.47
2022-08-22T06:37:06.671Z,98794.09
2022-08-22T06:39:37.584Z,98805.91
2022-08-22T06:42:15.981Z,98806.13
2022-08-22T06:44:50.145Z,98805.63
2022-08-22T06:47:25.183Z,98806.06
2022-08-22T06:50:07.031Z,98808.69
2022-08-22T06:53:09.715Z,98798.72
2022-08-22T06:55:41.118Z,98810.06
2022-08-22T06:58:18.398Z,98805.66
2022-08-22T07:00:58.823Z,98807.06
2022-08-22T07:03:39.181Z,98809.81
2022-08-22T07:06:06.545Z,98811.63
2022-08-22T07:08:38.978Z,98819.06
2022-08-22T07:11:32.844Z,98821.06
2022-08-22T07:14:08.716Z,98815.66
2022-08-22T07:17:04.710Z,98816.38
2022-08-22T07:19:39.822Z,98820.75
2022-08-22T07:22:16.685Z,98819.03
2022-08-22T07:24:52.411Z,98824.31
2022-08-22T07:28:00.042Z,98817.03
2022-08-22T07:30:51.898Z,98823.94
2022-08-22T07:33:43.819Z,98816.50
2022-08-22T07:36:45.942Z,98826.19
2022-08-22T07:39:26.094Z,98826.75
2022-08-22T07:42:12.824Z,98821.38
2022-08-22T07:45:07.561Z,98830.00
2022-08-22T07:47:52.592Z,98832.50
2022-08-22T07:50:29.779Z,98833.00
2022-08-22T07:53:13.312Z,98825.72
2022-08-22T07:55:49.669Z,98828.22
2022-08-22T07:58:18.205Z,98832.28
2022-08-22T08:00:46.751Z,98828.09
2022-08-22T08:03:13.850Z,98826.34
2022-08-22T08:05:44.609Z,98827.88
2022-08-22T08:08:38.951Z,98826.31
2022-08-22T08:11:10.830Z,98830.25
2022-08-22T08:13:42.876Z,98831.50
2022-08-22T08:16:19.259Z,98822.94
2022-08-22T08:18:49.867Z,98827.53
2022-08-22T08:22:01.583Z,98834.31
2022-08-22T08:24:43.214Z,98838.69
2022-08-22T08:27:41.452Z,98831.06
2022-08-22T08:30:24.543Z,98826.38
2022-08-22T08:33:25.738Z,98825.22
2022-08-22T08:36:14.858Z,98831.63
2022-08-22T08:39:13.934Z,98832.78
2022-08-22T08:42:00.567Z,98841.81
2022-08-22T08:45:04.487Z,98834.78
2022-08-22T08:48:00.391Z,98831.66
2022-08-22T08:51:04.008Z,98833.22
2022-08-22T08:54:09.216Z,98825.06
2022-08-22T08:57:18.727Z,98830.19
2022-08-22T09:00:14.920Z,98829.47
2022-08-22T09:02:56.557Z,98831.78
2022-08-22T09:05:56.924Z,98829.69
2022-08-22T09:08:55.815Z,98824.81
2022-08-22T09:12:10.196Z,98834.31
2022-08-22T09:15:18.622Z,98831.91
2022-08-22T09:18:03.338Z,98825.44
2022-08-22T09:21:16.420Z,98831.31
2022-08-22T09:24:43.421Z,98824.03
2022-08-22T09:27:33.979Z,98812.91
2022-08-22T09:30:12.913Z,98819.94
2022-08-22T09:32:54.593Z,98811.34
2022-08-22T09:35:42.047Z,98817.78
2022-08-22T09:38:47.938Z,98816.81
2022-08-22T09:41:41.555Z,98798.16
2022-08-22T09:44:45.543Z,98795.97
2022-08-22T09:47:41.463Z,98801.75
2022-08-22T09:50:52.673Z,98796.16
2022-08-22T09:54:03.071Z,98792.59
2022-08-22T09:56:57.421Z,98789.47
2022-08-22T10:00:06.067Z,98783.84
2022-08-22T10:02:58.775Z,98787.78
2022-08-22T10:05:43.564Z,98779.53
2022-08-22T10:08:38.339Z,98773.25
2022-08-22T10:11:21.160Z,98771.00
2022-08-22T10:14:01.371Z,98768.00
2022-08-22T10:16:54.079Z,98761.47
2022-08-22T10:19:31.855Z,98760.00
2022-08-22T10:22:19.665Z,98757.03
2022-08-22T10:25:37.525Z,98761.28
2022-08-22T10:28:39.791Z,98752.59
2022-08-22T10:32:14.629Z,98743.75
2022-08-22T10:34:48.040Z,98749.41
2022-08-22T10:37:46.130Z,98746.47
2022-08-22T10:40:24.717Z,98755.25
2022-08-22T10:43:16.699Z,98751.06
2022-08-22T10:45:53.100Z,98745.09
2022-08-22T10:49:08.387Z,98742.31
2022-08-22T10:52:15.560Z,98740.16
2022-08-22T10:55:00.477Z,98742.09
2022-08-22T10:57:54.192Z,98730.59
2022-08-22T11:00:46.357Z,98733.59
2022-08-22T11:03:43.728Z,98734.94
2022-08-22T11:06:36.189Z,98740.50
2022-08-22T11:09:42.601Z,98739.03
2022-08-22T11:12:34.654Z,98745.13
2022-08-22T11:15:46.983Z,98736.13
2022-08-22T11:19:03.062Z,98737.72
2022-08-22T11:21:46.165Z,98729.09
2022-08-22T11:25:04.628Z,98735.13
2022-08-22T11:27:59.136Z,98729.19
2022-08-22T11:31:03.536Z,98727.81
2022-08-22T11:33:56.216Z,98732.25
2022-08-22T11:37:01.241Z,98724.69
2022-08-22T11:40:03.739Z,98729.00
2022-08-22T11:42:47.338Z,98720.44
2022-08-22T11:45:28.101Z,98719.69
2022-08-22T11:48:27.232Z,98722.66
2022-08-22T11:51:49.852Z,98718.81
2022-08-22T11:54:37.292Z,98720.16
2022-08-22T11:57:25.160Z,98714.25
2022-08-22T12:00:46.145Z,98711.44
2022-08-22T12:04:03.492Z,98708.50
2022-08-22T12:07:06.625Z,98700.66
2022-08-22T12:10:06.897Z,98702.75
2022-08-22T12:13:01.510Z,98704.16
2022-08-22T12:15:54.717Z,98698.84
2022-08-22T12:18:53.034Z,98701.19
2022-08-22T12:21:56.332Z,98695.16
2022-08-22T12:24:43.803Z,98689.63
2022-08-22T12:27:28.578Z,98683.84
2022-08-22T12:30:12.996Z,98681.06
2022-08-22T12:33:06.254Z,98683.97
2022-08-22T12:36:21.846Z,98678.03
2022-08-22T12:39:03.229Z,98679.53
2022-08-22T12:42:22.573Z,98678.13
2022-08-22T12:45:37.203Z,98679.63
2022-08-22T12:48:31.042Z,98665.69
2022-08-22T12:51:04.292Z,98676.00
2022-08-22T12:54:05.507Z,98659.19
2022-08-22T12:56:47.241Z,98670.91
2022-08-22T12:59:32.666Z,98659.25
2022-08-22T13:02:15.637Z,98667.91
2022-08-22T13:05:19.620Z,98650.41
2022-08-22T13:08:05.385Z,98654.06
2022-08-22T13:10:59.310Z,98654.88
2022-08-22T13:13:37.268Z,98643.88
2022-08-22T13:16:19.494Z,98640.22
2022-08-22T13:18:54.052Z,98648.97
2022-08-22T13:21:31.743Z,98637.31
2022-08-22T13:24:16.926Z,98641.72
2022-08-22T13:26:58.425Z,98646.09
2022-08-22T13:29:52.454Z,98641.69
2022-08-22T13:32:50.129Z,98639.47
2022-08-22T13:35:52.118Z,98640.94
2022-08-22T13:38:34.689Z,98636.59
2022-08-22T13:41:04.833Z,98634.44
2022-08-22T13:43:52.680Z,98622.00
2022-08-22T13:46:28.087Z,98627.09
2022-08-22T13:49:00.992Z,98635.91
2022-08-22T13:51:36.661Z,98627.84
2022-08-22T13:54:54.584Z,98627.84
2022-08-22T13:57:34.718Z,98624.19
2022-08-22T14:01:07.222Z,98621.28
2022-08-22T14:03:52.301Z,98621.28
2022-08-22T14:06:43.797Z,98622.75
2022-08-22T14:09:32.357Z,98622.72
2022-08-22T14:12:21.845Z,98618.34
2022-08-22T14:15:06.565Z,98612.50
2022-08-22T14:17:43.112Z,98614.00
2022-08-22T14:20:37.168Z,98609.50
2022-08-22T14:23:23.921Z,98615.44
2022-08-22T14:25:54.502Z,98599.31
2022-08-22T14:28:31.171Z,98608.09
2022-08-22T14:31:13.323Z,98608.09
2022-08-22T14:34:14.085Z,98608.16
2022-08-22T14:37:17.981Z,98603.75
2022-08-22T14:39:55.543Z,98603.78
2022-08-22T14:42:29.498Z,98602.34
2022-08-22T14:45:12.546Z,98601.56
2022-08-22T14:48:29.903Z,98603.03
2022-08-22T14:50:50.093Z,98597.94
2022-08-22T14:53:20.122Z,98592.06
2022-08-22T14:56:02.501Z,98592.09
2022-08-22T14:58:35.914Z,98597.19
2022-08-22T15:01:17.283Z,98586.25
2022-08-22T15:03:52.526Z,98584.75
2022-08-22T15:06:47.701Z,98579.66
2022-08-22T15:09:37.229Z,98581.88
2022-08-22T15:12:32.633Z,98574.59
2022-08-22T15:15:05.750Z,98573.13
2022-08-22T15:17:37.819Z,98580.41
2022-08-22T15:20:22.753Z,98580.44
2022-08-22T15:23:09.839Z,98576.03
2022-08-22T15:25:41.354Z,98571.66
2022-08-22T15:28:14.380Z,98579.69
2022-08-22T15:31:07.790Z,98573.13
2022-08-22T15:33:43.357Z,98577.53
2022-08-22T15:36:33.496Z,98580.41
2022-08-22T15:39:27.293Z,98573.13
2022-08-22T15:41:54.307Z,98583.31
2022-08-22T15:44:32.596Z,98571.66
2022-08-22T15:47:31.501Z,98571.66
2022-08-22T15:50:15.377Z,98571.69
2022-08-22T15:53:17.900Z,98568.00
2022-08-22T15:56:06.682Z,98562.16
2022-08-22T15:58:37.815Z,98568.75
2022-08-22T16:01:19.777Z,98560.72
2022-08-22T16:04:14.285Z,98565.81
2022-08-22T16:06:58.096Z,98564.38
2022-08-22T16:09:47.389Z,98559.97
2022-08-22T16:12:38.797Z,98564.31
2022-08-22T16:15:55.948Z,98567.91
2022-08-22T16:18:36.951Z,98555.59
2022-08-22T16:21:23.538Z,98557.03
2022-08-22T16:23:50.483Z,98552.69
2022-08-22T16:26:24.822Z,98553.41
2022-08-22T16:29:03.581Z,98554.16
2022-08-22T16:31:43.750Z,98552.69
2022-08-22T16:34:16.539Z,98548.28
2022-08-22T16:36:50.905Z,98550.44
2022-08-22T16:39:20.980Z,98545.34
2022-08-22T16:41:54.638Z,98546.78
2022-08-22T16:44:30.376Z,98551.91
2022-08-22T16:47:14.886Z,98546.13
2022-08-22T16:49:59.383Z,98543.88
2022-08-22T16:52:26.185Z,98551.13
2022-08-22T16:55:26.753Z,98543.88
2022-08-22T16:58:49.862Z,98551.84
2022-08-22T17:01:50.101Z,98546.78
2022-08-22T17:04:34.320Z,98549.00
2022-08-22T17:07:22.588Z,98548.25
2022-08-22T17:10:19.109Z,98557.00
2022-08-22T17:13:26.385Z,98559.91
2022-08-22T17:16:21.264Z,98555.53
2022-08-22T17:19:18.219Z,98558.41
2022-08-22T17:22:09.245Z,98555.50
2022-08-22T17:25:09.680Z,98551.09
2022-08-22T17:27:44.048Z,98565.66
2022-08-22T17:30:14.659Z,98551.84
2022-08-22T17:32:44.297Z,98562.69
2022-08-22T17:35:39.505Z,98560.28
2022-08-22T17:38:39.436Z,98566.69
2022-08-22T17:41:45.846Z,98570.13
2022-08-22T17:44:30.276Z,98564.75
2022-08-22T17:47:14.832Z,98569.09
2022-08-22T17:49:41.557Z,98559.97
2022-08-22T17:52:33.988Z,98564.47
2022-08-22T17:55:18.528Z,98574.31
2022-08-22T17:57:53.232Z,98569.72
2022-08-22T18:00:37.580Z,98579.63
2022-08-22T18:03:16.144Z,98579.94
2022-08-22T18:06:10.572Z,98578.59
2022-08-22T18:12:06.167Z,98577.91
2022-08-22T18:14:46.947Z,98581.69
2022-08-22T18:17:25.647Z,98584.63
2022-08-22T18:20:08.567Z,98585.28
2022-08-22T18:23:21.720Z,98585.09
2022-08-22T18:26:42.391Z,98586.00
2022-08-22T18:29:25.747Z,98587.16
2022-08-22T18:32:12.535Z,98597.41
2022-08-22T18:37:43.232Z,98599.78
2022-08-22T18:40:30.767Z,98598.09
2022-08-22T18:43:23.693Z,98599.97
2022-08-22T18:45:50.304Z,98598.84
2022-08-22T18:48:27.716Z,98593.81
2022-08-22T18:51:24.434Z,98593.44
2022-08-22T18:54:00.069Z,98595.53
2022-08-22T18:56:50.304Z,98596.03
2022-08-22T18:59:28.873Z,98594.75
2022-08-22T19:02:23.844Z,98609.72
2022-08-22T19:05:22.006Z,98605.16
2022-08-22T19:08:08.069Z,98611.47
2022-08-22T19:10:53.894Z,98607.00
2022-08-22T19:14:05.563Z,98615.91
2022-08-22T19:17:22.215Z,98614.16
2022-08-22T19:20:11.313Z,98612.16
2022-08-22T19:22:38.163Z,98620.03
2022-08-22T19:25:26.885Z,98621.66
2022-08-22T19:28:09.414Z,98619.31
2022-08-22T19:31:22.574Z,98623.38
2022-08-22T19:34:29.449Z,98621.78
2022-08-22T19:37:32.321Z,98620.19
2022-08-22T19:40:45.209Z,98625.44
2022-08-22T19:43:30.344Z,98630.84
2022-08-22T19:46:00.652Z,98622.03
2022-08-22T19:48:44.553Z,98624.34
2022-08-22T19:51:20.358Z,98630.06
2022-08-22T19:54:17.504Z,98627.44
2022-08-22T19:57:15.484Z,98623.38
2022-08-22T20:00:20.309Z,98622.47
2022-08-22T20:03:08.140Z,98621.41
2022-08-22T20:06:33.592Z,98621.06
2022-08-22T20:09:30.544Z,98627.25
2022-08-22T20:12:05.652Z,98628.13
2022-08-22T20:14:36.522Z,98627.38
2022-08-22T20:17:26.288Z,98623.75
2022-08-22T20:20:23.995Z,98640.16
2022-08-22T20:23:05.579Z,98634.22
2022-08-22T20:25:50.006Z,98637.91
2022-08-22T20:28:38.313Z,98636.16
2022-08-22T20:31:12.826Z,98631.38
2022-08-22T20:33:42.885Z,98634.25
2022-08-22T20:36:28.047Z,98634.03
2022-08-22T20:39:03.694Z,98642.28
2022-08-22T20:41:42.016Z,98635.22
2022-08-22T20:44:20.667Z,98633.75
2022-08-22T20:47:13.838Z,98635.34
2022-08-22T20:49:56.218Z,98633.75
2022-08-22T20:52:33.806Z,98635.16
2022-08-22T20:55:31.263Z,98635.63
2022-08-22T20:58:06.884Z,98636.09
2022-08-22T21:00:43.960Z,98643.19
2022-08-22T21:03:36.825Z,98646.94
2022-08-22T21:06:29.940Z,98647.19
2022-08-22T21:09:37.995Z,98647.84
2022-08-22T21:12:09.175Z,98653.13
2022-08-22T21:14:44.184Z,98656.13
2022-08-22T21:17:34.476Z,98658.31
2022-08-22T21:20:21.805Z,98662.56
2022-08-22T21:22:49.546Z,98656.88
2022-08-22T21:25:16.618Z,98655.72
2022-08-22T21:27:47.999Z,98658.63
2022-08-22T21:30:25.354Z,98656.53
2022-08-22T21:32:56.017Z,98674.03
2022-08-22T21:35:31.284Z,98687.53
2022-08-22T21:37:59.463Z,98699.03
2022-08-22T21:40:37.099Z,98686.66
2022-08-22T21:43:27.026Z,98693.47
2022-08-22T21:45:53.746Z,98697.56
2022-08-22T21:48:58.318Z,98689.13
2022-08-22T21:51:44.099Z,98686.59
2022-08-22T21:54:25.824Z,98688.03
2022-08-22T21:56:56.562Z,98689.34
2022-08-22T21:59:50.577Z,98688.84
2022-08-22T22:02:39.680Z,98693.19
2022-08-22T22:05:17.206Z,98695.59
2022-08-22T22:07:46.633Z,98697.78
2022-08-22T22:10:20.164Z,98697.72
2022-08-22T22:12:49.284Z,98697.31
2022-08-22T22:15:20.842Z,98703.25
2022-08-22T22:17:47.679Z,98702.53
2022-08-22T22:20:16.135Z,98711.91
2022-08-22T22:22:46.338Z,98713.13
2022-08-22T22:25:39.651Z,98717.56
2022-08-22T22:28:12.994Z,98719.84
2022-08-22T22:30:40.434Z,98718.09
2022-08-22T22:33:07.242Z,98721.09
2022-08-22T22:35:34.526Z,98727.84
2022-08-22T22:38:01.887Z,98726.47
2022-08-22T22:40:28.972Z,98734.03
2022-08-22T22:42:55.659Z,98730.75
2022-08-22T22:45:22.363Z,98729.88
2022-08-22T22:47:49.071Z,98735.00
2022-08-22T22:50:16.926Z,98734.44
2022-08-22T22:52:43.799Z,98741.16
2022-08-22T22:55:11.082Z,98746.56
2022-08-22T22:57:51.256Z,98751.59
2022-08-22T23:00:31.542Z,98751.91
2022-08-22T23:03:00.929Z,98747.25
2022-08-22T23:05:32.523Z,98748.81
2022-08-22T23:08:00.240Z,98750.28
2022-08-22T23:10:30.367Z,98752.44
2022-08-22T23:12:57.506Z,98746.75
2022-08-22T23:15:24.198Z,98749.84
2022-08-22T23:17:51.020Z,98750.91
2022-08-22T23:20:17.910Z,98758.56
2022-08-22T23:22:45.894Z,98754.66
2022-08-22T23:25:13.034Z,98761.66
2022-08-22T23:27:39.752Z,98766.38
2022-08-22T23:30:11.031Z,98767.63
2022-08-22T23:32:38.638Z,98775.16
2022-08-22T23:35:06.568Z,98773.41
2022-08-22T23:37:33.867Z,98766.75
2022-08-22T23:40:00.826Z,98777.75
2022-08-22T23:42:29.232Z,98776.69
2022-08-22T23:44:56.031Z,98775.03
2022-08-22T23:47:22.865Z,98773.22
2022-08-22T23:49:49.507Z,98774.56
2022-08-22T23:52:16.331Z,98773.88
2022-08-22T23:54:43.150Z,98774.06
2022-08-22T23:57:11.524Z,98777.91
2022-08-22T23:59:44.613Z,98780.47
